Terminal Aerodrome Forecast
Issued by NWS Dodge City, KS

Home | Current Version | Previous Version | Text Only | Print | Product List | Glossary Off
Versions: 1 2 3 4 5 6 7 8 9 10 11 12 13 14 15 16 17

000
FTUS43 KDDC 210524
TAFDDC
TAF
KDDC 210524Z 2106/2206 09006KT P6SM SCT100
     FM211100 09009KT P6SM -SHRA OVC080
     FM211500 09019G27KT 3SM SHRA BR OVC020
     FM211700 05010KT 3SM SHRA BR OVC010
     FM212200 01015G23KT 2SM SHRA BR OVC008
     FM220000 36016G24KT 4SM BR OVC008=

USA.gov is the U.S. government's official web portal to all federal, state and local government web resources and services.